createdAt,value
2019-03-08T00:02:28.209Z,6.57
2019-03-08T00:04:57.195Z,5.03
2019-03-08T00:07:26.156Z,6.60
2019-03-08T00:09:55.415Z,4.77
2019-03-08T00:12:24.313Z,5.03
2019-03-08T00:14:53.337Z,3.90
2019-03-08T00:17:22.241Z,3.40
2019-03-08T00:19:51.180Z,4.43
2019-03-08T00:22:20.208Z,3.47
2019-03-08T00:24:49.097Z,6.13
2019-03-08T00:27:18.040Z,4.90
2019-03-08T00:29:46.999Z,3.27
2019-03-08T00:32:15.992Z,5.47
2019-03-08T00:34:44.979Z,5.37
2019-03-08T00:37:14.058Z,3.20
2019-03-08T00:39:42.968Z,2.90
2019-03-08T00:42:11.892Z,9.10
2019-03-08T00:44:40.701Z,5.17
2019-03-08T00:47:09.670Z,7.00
2019-03-08T00:49:38.541Z,4.77
2019-03-08T00:52:07.443Z,5.73
2019-03-08T00:54:36.333Z,3.63
2019-03-08T00:57:05.326Z,5.58
2019-03-08T00:59:34.162Z,5.12
2019-03-08T01:02:03.598Z,3.83
2019-03-08T01:04:32.803Z,8.97
2019-03-08T01:07:03.309Z,2.60
2019-03-08T01:09:32.223Z,4.03
2019-03-08T01:12:01.362Z,4.03
2019-03-08T01:14:30.480Z,2.90
2019-03-08T01:16:59.387Z,2.13
2019-03-08T01:19:28.551Z,4.77
2019-03-08T01:21:57.699Z,4.20
2019-03-08T01:24:26.727Z,4.63
2019-03-08T01:26:55.947Z,4.30
2019-03-08T01:29:24.927Z,4.57
2019-03-08T01:31:54.023Z,5.73
2019-03-08T01:34:23.212Z,2.97
2019-03-08T01:36:52.364Z,7.17
2019-03-08T01:39:21.302Z,2.80
2019-03-08T01:41:50.316Z,4.70
2019-03-08T01:44:19.296Z,6.37
2019-03-08T01:46:48.369Z,3.20
2019-03-08T01:49:17.928Z,3.73
2019-03-08T01:51:50.074Z,3.33
2019-03-08T01:54:19.157Z,3.07
2019-03-08T01:56:48.009Z,4.67
2019-03-08T01:59:17.082Z,2.37
2019-03-08T02:01:46.096Z,3.77
2019-03-08T02:04:15.093Z,4.13
2019-03-08T02:06:46.394Z,2.20
2019-03-08T02:09:15.304Z,2.07
2019-03-08T02:11:44.197Z,4.83
2019-03-08T02:14:13.215Z,1.80
2019-03-08T02:16:42.397Z,2.33
2019-03-08T02:19:15.501Z,5.07
2019-03-08T02:21:44.613Z,3.93
2019-03-08T02:24:13.414Z,4.08
2019-03-08T02:26:42.455Z,1.97
2019-03-08T02:29:11.244Z,2.60
2019-03-08T02:31:40.354Z,3.93
2019-03-08T02:34:09.299Z,2.40
2019-03-08T02:36:38.093Z,3.10
2019-03-08T02:39:07.787Z,1.70
2019-03-08T02:41:36.686Z,4.63
2019-03-08T02:44:05.597Z,2.00
2019-03-08T02:46:34.600Z,1.63
2019-03-08T02:49:03.513Z,5.23
2019-03-08T02:51:32.535Z,3.30
2019-03-08T02:54:01.568Z,3.03
2019-03-08T02:56:30.550Z,7.97
2019-03-08T02:58:59.576Z,10.77
2019-03-08T03:01:28.528Z,2.50
2019-03-08T03:03:58.565Z,3.17
2019-03-08T03:06:27.376Z,3.93
2019-03-08T03:08:56.254Z,3.30
2019-03-08T03:11:25.241Z,4.47
2019-03-08T03:13:54.233Z,4.57
2019-03-08T03:16:23.230Z,3.13
2019-03-08T03:18:52.065Z,3.07
2019-03-08T03:21:21.111Z,3.73
2019-03-08T03:23:49.931Z,2.93
2019-03-08T03:26:18.808Z,1.40
2019-03-08T03:28:47.701Z,6.00
2019-03-08T03:31:16.466Z,3.90
2019-03-08T03:33:45.744Z,2.67
2019-03-08T03:36:14.757Z,2.63
2019-03-08T03:38:43.558Z,2.73
2019-03-08T03:41:12.648Z,3.03
2019-03-08T03:43:41.535Z,3.70
2019-03-08T03:46:10.329Z,4.57
2019-03-08T03:48:39.229Z,3.70
2019-03-08T03:51:08.191Z,2.13
2019-03-08T03:53:36.990Z,6.07
2019-03-08T03:56:06.274Z,2.10
2019-03-08T03:58:35.137Z,4.50
2019-03-08T04:01:20.578Z,7.43
2019-03-08T04:03:49.470Z,5.80
2019-03-08T04:06:18.644Z,4.97
2019-03-08T04:08:47.559Z,3.77
2019-03-08T04:11:16.450Z,6.27
2019-03-08T04:13:45.373Z,3.23
2019-03-08T04:16:14.386Z,4.20
2019-03-08T04:18:43.191Z,5.27
2019-03-08T04:21:12.286Z,4.20
2019-03-08T04:23:41.206Z,5.50
2019-03-08T04:26:10.121Z,3.77
2019-03-08T04:28:38.995Z,3.53
2019-03-08T04:31:08.256Z,3.83
2019-03-08T04:33:37.224Z,9.93
2019-03-08T04:36:06.278Z,3.80
2019-03-08T04:38:35.156Z,4.30
2019-03-08T04:41:04.146Z,3.20
2019-03-08T04:43:33.124Z,4.73
2019-03-08T04:46:02.015Z,5.03
2019-03-08T04:48:31.062Z,5.00
2019-03-08T04:51:00.176Z,6.27
2019-03-08T04:53:28.987Z,3.20
2019-03-08T04:55:57.893Z,3.53
2019-03-08T04:58:27.597Z,6.87
2019-03-08T05:00:56.562Z,3.43
2019-03-08T05:03:25.508Z,7.20
2019-03-08T05:05:54.399Z,3.70
2019-03-08T05:08:23.281Z,12.20
2019-03-08T05:10:52.256Z,8.93
2019-03-08T05:13:21.217Z,5.63
2019-03-08T05:15:50.107Z,4.57
2019-03-08T05:18:18.914Z,5.97
2019-03-08T05:20:47.822Z,5.20
2019-03-08T05:23:16.678Z,3.07
2019-03-08T05:25:45.689Z,4.07
2019-03-08T05:28:14.589Z,7.17
2019-03-08T05:30:43.487Z,4.17
2019-03-08T05:33:12.409Z,7.13
2019-03-08T05:35:41.315Z,5.13
2019-03-08T05:38:10.230Z,3.10
2019-03-08T05:40:39.116Z,4.57
2019-03-08T05:43:07.912Z,5.10
2019-03-08T05:45:36.815Z,5.10
2019-03-08T05:48:05.932Z,7.73
2019-03-08T05:50:34.975Z,7.57
2019-03-08T05:53:03.972Z,11.73
2019-03-08T05:55:32.993Z,10.93
2019-03-08T05:58:01.936Z,4.77
2019-03-08T06:00:33.873Z,6.10
2019-03-08T06:03:02.841Z,3.07
2019-03-08T06:05:31.740Z,5.87
2019-03-08T06:08:00.613Z,7.97
2019-03-08T06:10:33.582Z,5.25
2019-03-08T06:13:02.644Z,2.23
2019-03-08T06:15:31.641Z,3.17
2019-03-08T06:18:00.622Z,5.00
2019-03-08T06:20:29.585Z,5.67
2019-03-08T06:23:17.666Z,3.63
2019-03-08T06:25:46.732Z,6.33
2019-03-08T06:28:15.777Z,6.13
2019-03-08T06:30:44.657Z,7.10
2019-03-08T06:33:13.606Z,5.37
2019-03-08T06:35:42.577Z,3.07
2019-03-08T06:38:11.464Z,5.83
2019-03-08T06:40:40.381Z,8.57
2019-03-08T06:43:09.627Z,5.50
2019-03-08T06:45:38.641Z,4.83
2019-03-08T06:48:07.688Z,7.73
2019-03-08T06:50:36.656Z,5.67
2019-03-08T06:53:05.648Z,3.85
2019-03-08T06:55:34.490Z,5.23
2019-03-08T06:58:05.001Z,6.63
2019-03-08T07:01:01.988Z,5.30
2019-03-08T07:03:30.931Z,3.70
2019-03-08T07:05:59.850Z,5.83
2019-03-08T07:08:28.748Z,4.73
2019-03-08T07:10:57.639Z,9.63
2019-03-08T07:13:28.067Z,7.43
2019-03-08T07:15:57.048Z,7.20
2019-03-08T07:18:25.890Z,6.30
2019-03-08T07:21:12.904Z,8.73
2019-03-08T07:23:50.457Z,7.03
2019-03-08T07:26:37.042Z,10.93
2019-03-08T07:29:24.947Z,5.27
2019-03-08T07:32:10.356Z,7.33
2019-03-08T07:35:19.609Z,5.40
2019-03-08T07:38:33.513Z,5.83
2019-03-08T07:41:40.906Z,5.40
2019-03-08T07:44:34.515Z,5.83
2019-03-08T07:47:15.863Z,15.20
2019-03-08T07:50:02.752Z,4.43
2019-03-08T07:52:45.127Z,8.23
2019-03-08T07:55:31.914Z,13.57
2019-03-08T07:58:08.194Z,17.23
2019-03-08T08:01:00.384Z,9.50
2019-03-08T08:03:34.983Z,7.23
2019-03-08T08:06:12.832Z,12.30
2019-03-08T08:08:53.254Z,6.60
2019-03-08T08:11:50.420Z,3.63
2019-03-08T08:14:39.782Z,8.37
2019-03-08T08:17:32.883Z,4.00
2019-03-08T08:20:24.140Z,5.97
2019-03-08T08:23:11.987Z,12.77
2019-03-08T08:25:48.343Z,5.50
2019-03-08T08:28:22.725Z,6.40
2019-03-08T08:31:12.925Z,8.00
2019-03-08T08:34:07.263Z,5.60
2019-03-08T08:37:01.185Z,5.57
2019-03-08T08:39:49.458Z,4.10
2019-03-08T08:42:40.128Z,6.13
2019-03-08T08:45:27.635Z,11.10
2019-03-08T08:48:07.653Z,7.17
2019-03-08T08:51:04.541Z,5.62
2019-03-08T08:53:42.980Z,6.53
2019-03-08T08:56:26.983Z,6.07
2019-03-08T08:59:08.022Z,3.83
2019-03-08T09:02:07.628Z,6.27
2019-03-08T09:04:55.561Z,6.27
2019-03-08T09:07:49.559Z,6.00
2019-03-08T09:10:36.617Z,3.67
2019-03-08T09:13:13.602Z,6.47
2019-03-08T09:15:57.959Z,5.50
2019-03-08T09:19:00.857Z,5.67
2019-03-08T09:21:35.922Z,4.60
2019-03-08T09:24:29.175Z,3.93
2019-03-08T09:27:23.399Z,1.63
2019-03-08T09:30:09.670Z,7.63
2019-03-08T09:32:58.940Z,5.83
2019-03-08T09:35:29.542Z,8.53
2019-03-08T09:38:17.513Z,8.57
2019-03-08T09:41:08.496Z,3.83
2019-03-08T09:43:56.223Z,2.95
2019-03-08T09:46:31.338Z,5.03
2019-03-08T09:49:17.808Z,3.77
2019-03-08T09:52:14.701Z,4.20
2019-03-08T09:54:49.038Z,3.30
2019-03-08T09:57:36.978Z,3.53
2019-03-08T10:00:27.491Z,1.93
2019-03-08T10:03:21.347Z,1.80
2019-03-08T10:06:04.622Z,3.77
2019-03-08T10:09:01.842Z,1.53
2019-03-08T10:11:44.754Z,3.03
2019-03-08T10:14:22.645Z,3.00
2019-03-08T10:17:00.258Z,3.00
2019-03-08T10:19:47.512Z,2.37
2019-03-08T10:22:47.770Z,1.37
2019-03-08T10:25:25.303Z,2.47
2019-03-08T10:28:18.621Z,2.73
2019-03-08T10:30:55.175Z,3.20
2019-03-08T10:33:46.571Z,1.70
2019-03-08T10:36:40.616Z,0.97
2019-03-08T10:39:14.602Z,3.10
2019-03-08T10:41:59.608Z,1.27
2019-03-08T10:44:41.371Z,1.43
2019-03-08T10:47:38.679Z,0.60
2019-03-08T10:50:18.315Z,0.77
2019-03-08T10:53:14.806Z,2.60
2019-03-08T10:56:01.048Z,1.43
2019-03-08T10:58:56.914Z,0.73
2019-03-08T11:01:38.028Z,1.20
2019-03-08T11:04:11.286Z,0.90
2019-03-08T11:06:59.297Z,4.87
2019-03-08T11:09:53.122Z,1.13
2019-03-08T11:12:35.552Z,1.37
2019-03-08T11:15:39.437Z,1.00
2019-03-08T11:18:15.002Z,1.00
2019-03-08T11:21:06.082Z,1.73
2019-03-08T11:23:55.365Z,0.97
2019-03-08T11:26:31.810Z,4.93
2019-03-08T11:29:16.755Z,1.55
2019-03-08T11:32:04.586Z,0.60
2019-03-08T11:34:52.378Z,0.73
2019-03-08T11:37:40.390Z,2.73
2019-03-08T11:40:25.910Z,1.33
2019-03-08T11:43:07.683Z,0.60
2019-03-08T11:46:01.651Z,4.63
2019-03-08T11:48:48.367Z,2.90
2019-03-08T11:51:36.140Z,8.13
2019-03-08T11:54:24.507Z,0.63
2019-03-08T11:57:02.984Z,1.20
2019-03-08T11:59:43.477Z,0.93
2019-03-08T12:02:37.509Z,1.07
2019-03-08T12:05:25.465Z,1.10
2019-03-08T12:08:16.335Z,1.03
2019-03-08T12:11:13.722Z,0.73
2019-03-08T12:13:51.236Z,0.80
2019-03-08T12:16:37.771Z,2.10
2019-03-08T12:19:34.777Z,0.60
2019-03-08T12:22:14.647Z,1.17
2019-03-08T12:25:11.622Z,3.33
2019-03-08T12:28:06.124Z,1.73
2019-03-08T12:31:00.278Z,2.60
2019-03-08T12:33:39.759Z,1.43
2019-03-08T12:36:19.697Z,2.53
2019-03-08T12:39:26.270Z,1.40
2019-03-08T12:42:23.368Z,5.20
2019-03-08T12:45:21.492Z,1.45
2019-03-08T12:48:08.397Z,3.70
2019-03-08T12:50:53.843Z,5.70
2019-03-08T12:53:36.230Z,0.70
2019-03-08T12:56:14.059Z,1.77
2019-03-08T12:59:14.210Z,5.07
2019-03-08T13:01:56.364Z,2.30
2019-03-08T13:04:42.990Z,3.60
2019-03-08T13:07:29.257Z,1.03
2019-03-08T13:10:08.957Z,2.97
2019-03-08T13:12:38.196Z,1.17
2019-03-08T13:15:08.459Z,4.17
2019-03-08T13:17:37.476Z,3.00
2019-03-08T13:20:08.299Z,0.70
2019-03-08T13:22:37.283Z,2.37
2019-03-08T13:25:06.355Z,2.73
2019-03-08T13:27:35.656Z,2.30
2019-03-08T13:30:08.930Z,2.70
2019-03-08T13:32:38.603Z,2.73
2019-03-08T13:35:08.164Z,5.57
2019-03-08T13:37:37.164Z,1.00
2019-03-08T13:40:06.716Z,1.83
2019-03-08T13:42:35.838Z,1.77
2019-03-08T13:45:07.358Z,2.00
2019-03-08T13:47:36.773Z,1.23
2019-03-08T13:50:06.686Z,0.93
2019-03-08T13:52:35.799Z,1.37
2019-03-08T13:55:06.204Z,1.90
2019-03-08T13:57:35.101Z,1.17
2019-03-08T14:00:04.686Z,0.60
2019-03-08T14:02:36.707Z,2.40
2019-03-08T14:05:07.917Z,1.73
2019-03-08T14:07:37.344Z,6.03
2019-03-08T14:10:07.770Z,2.47
2019-03-08T14:12:36.708Z,2.90
2019-03-08T14:15:06.688Z,2.47
2019-03-08T14:17:35.629Z,1.63
2019-03-08T14:20:05.239Z,2.33
2019-03-08T14:22:34.484Z,0.90
2019-03-08T14:25:03.748Z,2.50
2019-03-08T14:27:32.842Z,4.10
2019-03-08T14:30:01.752Z,2.10
2019-03-08T14:32:30.890Z,1.77
2019-03-08T14:35:02.799Z,3.03
2019-03-08T14:37:30.750Z,1.20
2019-03-08T14:39:59.793Z,5.13
2019-03-08T14:42:42.117Z,2.43
2019-03-08T14:45:40.425Z,5.17
2019-03-08T14:48:11.030Z,3.33
2019-03-08T14:50:39.953Z,1.77
2019-03-08T14:53:08.748Z,7.20
2019-03-08T14:55:37.655Z,1.23
2019-03-08T14:58:06.646Z,3.70
2019-03-08T15:00:35.652Z,1.53
2019-03-08T15:03:05.470Z,1.53
2019-03-08T15:05:34.416Z,3.17
2019-03-08T15:08:03.610Z,3.87
2019-03-08T15:10:39.389Z,2.10
2019-03-08T15:13:03.279Z,1.10
2019-03-08T15:15:32.355Z,2.87
2019-03-08T15:18:01.282Z,0.93
2019-03-08T15:20:30.620Z,1.47
2019-03-08T15:22:59.621Z,1.67
2019-03-08T15:25:31.253Z,3.27
2019-03-08T15:27:59.229Z,3.33
2019-03-08T15:30:28.221Z,2.20
2019-03-08T15:32:57.190Z,1.10
2019-03-08T15:35:26.086Z,2.57
2019-03-08T15:37:55.058Z,1.40
2019-03-08T15:40:24.108Z,3.53
2019-03-08T15:42:52.999Z,3.93
2019-03-08T15:45:22.025Z,3.20
2019-03-08T15:47:51.036Z,3.13
2019-03-08T15:50:20.068Z,3.30
2019-03-08T15:52:51.266Z,2.63
2019-03-08T15:55:19.773Z,2.30
2019-03-08T15:57:48.690Z,3.27
2019-03-08T16:00:19.408Z,0.73
2019-03-08T16:02:51.649Z,4.67
2019-03-08T16:05:23.901Z,3.57
2019-03-08T16:07:51.464Z,3.27
2019-03-08T16:10:20.880Z,3.03
2019-03-08T16:12:49.935Z,2.35
2019-03-08T16:15:18.942Z,11.43
2019-03-08T16:17:48.230Z,4.60
2019-03-08T16:20:18.730Z,3.03
2019-03-08T16:22:47.720Z,2.80
2019-03-08T16:25:16.931Z,6.03
2019-03-08T16:27:46.245Z,4.30
2019-03-08T16:30:21.086Z,3.10
2019-03-08T16:32:58.442Z,2.33
2019-03-08T16:35:30.238Z,5.30
2019-03-08T16:38:16.946Z,3.10
2019-03-08T16:41:04.798Z,3.53
2019-03-08T16:43:55.462Z,6.37
2019-03-08T16:46:43.251Z,4.00
2019-03-08T16:49:43.158Z,3.20
2019-03-08T16:52:29.425Z,2.07
2019-03-08T16:55:05.888Z,3.80
2019-03-08T16:57:56.926Z,3.13
2019-03-08T17:01:03.232Z,5.03
2019-03-08T17:03:49.339Z,4.90
2019-03-08T17:06:38.144Z,3.20
2019-03-08T17:09:26.135Z,4.60
2019-03-08T17:12:17.538Z,2.67
2019-03-08T17:15:11.182Z,2.97
2019-03-08T17:18:01.845Z,2.77
2019-03-08T17:20:38.940Z,2.87
2019-03-08T17:23:41.739Z,1.92
2019-03-08T17:26:38.642Z,2.13
2019-03-08T17:29:14.134Z,5.47
2019-03-08T17:31:51.047Z,1.87
2019-03-08T17:34:48.120Z,1.47
2019-03-08T17:37:35.393Z,5.67
2019-03-08T17:40:13.127Z,3.23
2019-03-08T17:42:59.824Z,2.93
2019-03-08T17:45:35.329Z,4.33
2019-03-08T17:48:15.013Z,8.47
2019-03-08T17:51:19.639Z,3.92
2019-03-08T17:54:06.636Z,5.27
2019-03-08T17:56:54.472Z,4.37
2019-03-08T17:59:42.069Z,9.10
2019-03-08T18:02:45.282Z,4.47
2019-03-08T18:05:25.515Z,3.27
2019-03-08T18:08:11.765Z,3.93
2019-03-08T18:10:51.568Z,5.13
2019-03-08T18:13:45.506Z,4.33
2019-03-08T18:16:29.908Z,4.93
2019-03-08T18:19:17.835Z,22.93
2019-03-08T18:22:14.978Z,28.10
2019-03-08T18:25:01.805Z,34.78
2019-03-08T18:27:45.169Z,26.50
2019-03-08T18:30:31.563Z,46.20
2019-03-08T18:33:28.854Z,19.23
2019-03-08T18:36:15.542Z,14.93
2019-03-08T18:39:03.411Z,10.57
2019-03-08T18:41:54.077Z,15.83
2019-03-08T18:44:42.098Z,18.30
2019-03-08T18:47:33.638Z,6.60
2019-03-08T18:50:20.264Z,9.27
2019-03-08T18:53:17.492Z,8.77
2019-03-08T18:55:55.020Z,9.20
2019-03-08T18:58:45.905Z,7.42
2019-03-08T19:01:27.062Z,6.13
2019-03-08T19:04:02.314Z,6.60
2019-03-08T19:06:53.657Z,10.20
2019-03-08T19:09:39.537Z,5.10
2019-03-08T19:12:39.669Z,5.53
2019-03-08T19:18:25.418Z,6.40
2019-03-08T19:21:12.174Z,3.83
2019-03-08T19:23:49.357Z,4.10
2019-03-08T19:26:32.250Z,5.53
2019-03-08T19:29:08.719Z,5.73
2019-03-08T19:31:43.219Z,12.07
2019-03-08T19:34:34.338Z,9.43
2019-03-08T19:37:20.758Z,7.80
2019-03-08T19:40:14.890Z,8.47
2019-03-08T19:43:01.397Z,5.77
2019-03-08T19:45:52.860Z,7.67
2019-03-08T19:48:27.105Z,6.73
2019-03-08T19:51:30.276Z,4.77
2019-03-08T19:54:12.521Z,6.37
2019-03-08T19:56:49.664Z,4.80
2019-03-08T19:59:27.574Z,5.10
2019-03-08T20:02:21.510Z,7.00
2019-03-08T20:05:12.665Z,4.57
2019-03-08T20:08:06.746Z,7.57
2019-03-08T20:10:58.532Z,5.40
2019-03-08T20:13:49.266Z,4.90
2019-03-08T20:16:26.446Z,3.73
2019-03-08T20:19:11.099Z,3.80
2019-03-08T20:22:01.810Z,7.40
2019-03-08T20:24:47.086Z,7.70
2019-03-08T20:27:41.260Z,6.93
2019-03-08T20:30:33.209Z,8.53
2019-03-08T20:33:27.380Z,10.40
2019-03-08T20:36:08.353Z,7.90
2019-03-08T20:38:54.154Z,7.60
2019-03-08T20:41:32.640Z,3.77
2019-03-08T20:44:20.553Z,7.10
2019-03-08T20:46:55.510Z,6.43
2019-03-08T20:49:24.492Z,7.23
2019-03-08T20:51:53.394Z,8.97
2019-03-08T20:54:22.381Z,4.90
2019-03-08T20:56:51.697Z,6.93
2019-03-08T20:59:20.472Z,5.10
2019-03-08T21:01:49.471Z,7.93
2019-03-08T21:04:18.378Z,8.77
2019-03-08T21:06:47.384Z,8.97
2019-03-08T21:09:16.287Z,7.80
2019-03-08T21:11:45.321Z,7.67
2019-03-08T21:14:14.343Z,5.90
2019-03-08T21:16:43.365Z,6.57
2019-03-08T21:19:12.374Z,7.13
2019-03-08T21:21:41.331Z,7.53
2019-03-08T21:24:10.479Z,9.17
2019-03-08T21:26:39.448Z,11.20
2019-03-08T21:29:08.468Z,6.20
2019-03-08T21:31:37.680Z,12.83
2019-03-08T21:34:06.658Z,9.47
2019-03-08T21:36:35.916Z,5.03
2019-03-08T21:39:06.538Z,5.43
2019-03-08T21:41:35.579Z,10.53
2019-03-08T21:44:04.647Z,3.83
2019-03-08T21:46:33.608Z,11.00
2019-03-08T21:49:02.707Z,5.77
2019-03-08T21:51:31.620Z,3.70
2019-03-08T21:54:00.413Z,6.23
2019-03-08T21:56:29.274Z,7.87
2019-03-08T21:58:58.082Z,5.00
2019-03-08T22:01:27.344Z,6.33
2019-03-08T22:04:04.205Z,5.40
2019-03-08T22:06:33.001Z,5.87
2019-03-08T22:09:15.615Z,10.67
2019-03-08T22:11:45.468Z,7.37
2019-03-08T22:14:14.463Z,5.63
2019-03-08T22:16:43.518Z,5.60
2019-03-08T22:19:12.979Z,6.70
2019-03-08T22:21:42.081Z,11.33
2019-03-08T22:24:13.692Z,8.20
2019-03-08T22:26:41.872Z,6.20
2019-03-08T22:29:10.686Z,7.03
2019-03-08T22:31:39.648Z,4.53
2019-03-08T22:34:08.581Z,6.77
2019-03-08T22:36:37.440Z,5.93
2019-03-08T22:39:07.315Z,6.47
2019-03-08T22:41:36.129Z,5.43
2019-03-08T22:44:05.079Z,9.33
2019-03-08T22:46:34.076Z,9.53
2019-03-08T22:49:03.340Z,7.50
2019-03-08T22:51:32.562Z,8.33
2019-03-08T22:54:01.456Z,7.43
2019-03-08T22:56:30.422Z,6.67
2019-03-08T22:58:59.241Z,8.63
2019-03-08T23:01:39.590Z,8.33
2019-03-08T23:04:08.590Z,5.83
2019-03-08T23:06:37.417Z,6.13
2019-03-08T23:09:09.167Z,8.80
2019-03-08T23:11:38.137Z,5.77
2019-03-08T23:14:07.111Z,4.50
2019-03-08T23:16:40.250Z,7.33
2019-03-08T23:19:09.338Z,4.20
2019-03-08T23:21:38.337Z,5.30
2019-03-08T23:24:07.108Z,9.07
2019-03-08T23:26:55.179Z,8.63
2019-03-08T23:29:37.800Z,10.77
2019-03-08T23:32:17.248Z,7.77
2019-03-08T23:34:46.222Z,5.57
2019-03-08T23:37:15.149Z,6.43
2019-03-08T23:39:44.140Z,8.37
2019-03-08T23:42:13.435Z,8.70
2019-03-08T23:44:42.626Z,7.00
2019-03-08T23:47:11.583Z,4.57
2019-03-08T23:49:40.439Z,7.97
2019-03-08T23:52:09.353Z,6.90
2019-03-08T23:54:38.161Z,8.60
2019-03-08T23:57:07.275Z,8.23
2019-03-08T23:59:36.168Z,3.83
